Decoded Metar for OMAD (ABU DHABI in UNITED ARAB EMIRATES) (IATA:AZI) | Meteo·Mobile Aviation Weather
aviador You're here:

OMAD Decoded Metar

ABU DHABI in UNITED ARAB EMIRATES
Report Time2018-10-23 22:00:00
UTC Time2018-10-23 22:44:10
Flight Rules vfr VFR
Wind320° at 06 kt
W.Decomp.*RWY 31: 5.9 kt HW 0.8 kt RCW
W.Rank320° ranks 4
Current wind is below 320° avg. (9.1)
Visibility9999 m
Phenomena:N/A
Clouds:N/A
Expected CloudBase > 3,200 ft AGL from Temp-Dew spread
CeilingNone
Temp30°C (ISA +15)
Dew Point22°C (62% RH)
Heat Index33.2°C
QNH1012 hPa
Density Alt2,113 ft
Elevation10 ft
Report Wrong Elevation
Raw Report
METAR OMAD 232200Z 32006KT CAVOK 30/22 Q1012 NOSIG=

Extra information for OMAD:More info

Metar Taf Metar & Taf Last 4 Metars F.Rules Stats Wind Profile Meteogram Temp Stats Airport Information Weather charts Add Link Nearby VenuesMetar ALERT Operation Metar Decoded Social comments